createdAt,value
2022-09-28T00:00:35.079Z,3.67
2022-09-28T00:03:01.448Z,3.07
2022-09-28T00:05:28.003Z,4.40
2022-09-28T00:07:54.453Z,5.43
2022-09-28T00:10:23.050Z,3.17
2022-09-28T00:12:50.747Z,5.17
2022-09-28T00:15:17.755Z,4.27
2022-09-28T00:17:47.034Z,4.23
2022-09-28T00:20:14.040Z,4.17
2022-09-28T00:22:40.451Z,2.97
2022-09-28T00:25:07.376Z,2.37
2022-09-28T00:27:33.811Z,2.97
2022-09-28T00:30:00.234Z,2.00
2022-09-28T00:32:26.808Z,2.77
2022-09-28T00:34:53.322Z,2.33
2022-09-28T00:37:20.100Z,2.03
2022-09-28T00:39:48.239Z,3.50
2022-09-28T00:42:17.621Z,2.20
2022-09-28T00:44:51.855Z,1.53
2022-09-28T00:47:39.815Z,2.07
2022-09-28T00:50:20.634Z,2.97
2022-09-28T00:53:11.587Z,2.30
2022-09-28T00:55:51.075Z,1.63
2022-09-28T00:58:21.575Z,2.60
2022-09-28T01:00:49.383Z,3.47
2022-09-28T01:03:16.382Z,1.53
2022-09-28T01:05:44.879Z,2.17
2022-09-28T01:08:14.128Z,1.50
2022-09-28T01:10:43.418Z,1.37
2022-09-28T01:13:12.847Z,1.90
2022-09-28T01:15:48.385Z,1.20
2022-09-28T01:18:22.827Z,1.53
2022-09-28T01:21:14.594Z,1.10
2022-09-28T01:23:56.538Z,1.07
2022-09-28T01:26:38.245Z,1.30
2022-09-28T01:29:13.718Z,1.60
2022-09-28T01:31:45.439Z,1.63
2022-09-28T01:34:25.482Z,1.80
2022-09-28T01:36:55.851Z,3.70
2022-09-28T01:39:33.612Z,1.10
2022-09-28T01:42:05.647Z,1.00
2022-09-28T01:44:39.609Z,1.30
2022-09-28T01:47:11.496Z,1.40
2022-09-28T01:49:42.624Z,2.20
2022-09-28T01:52:25.371Z,2.67
2022-09-28T01:55:10.887Z,1.67
2022-09-28T01:57:45.614Z,3.30
2022-09-28T02:00:15.039Z,1.20
2022-09-28T02:02:49.866Z,1.50
2022-09-28T02:05:40.221Z,2.37
2022-09-28T02:08:19.886Z,4.80
2022-09-28T02:10:56.078Z,1.53
2022-09-28T02:13:32.624Z,5.53
2022-09-28T02:16:07.513Z,3.70
2022-09-28T02:18:34.189Z,3.47
2022-09-28T02:21:22.896Z,3.80
2022-09-28T02:24:01.401Z,3.23
2022-09-28T02:26:33.252Z,2.73
2022-09-28T02:28:59.690Z,4.97
2022-09-28T02:31:27.894Z,5.57
2022-09-28T02:33:56.882Z,3.07
2022-09-28T02:36:25.709Z,3.70
2022-09-28T02:38:53.000Z,3.73
2022-09-28T02:41:44.287Z,2.87
2022-09-28T02:44:31.623Z,2.87
2022-09-28T02:47:10.717Z,3.30
2022-09-28T02:49:57.611Z,4.03
2022-09-28T02:53:01.778Z,3.00
2022-09-28T02:55:31.201Z,2.90
2022-09-28T02:58:36.216Z,4.03
2022-09-28T03:01:21.062Z,4.43
2022-09-28T03:03:59.237Z,4.17
2022-09-28T03:06:33.504Z,6.83
2022-09-28T03:09:12.260Z,4.83
2022-09-28T03:11:47.679Z,4.43
2022-09-28T03:14:15.231Z,3.60
2022-09-28T03:16:46.070Z,4.63
2022-09-28T03:19:13.527Z,5.37
2022-09-28T03:21:40.135Z,4.43
2022-09-28T03:24:06.852Z,5.73
2022-09-28T03:26:33.251Z,5.90
2022-09-28T03:28:59.677Z,6.90
2022-09-28T03:31:26.076Z,5.77
2022-09-28T03:33:52.899Z,6.03
2022-09-28T03:36:19.696Z,5.33
2022-09-28T03:38:46.003Z,7.23
2022-09-28T03:41:12.404Z,8.70
2022-09-28T03:43:38.850Z,11.97
2022-09-28T03:46:05.605Z,13.00
2022-09-28T03:48:34.735Z,9.60
2022-09-28T03:51:03.581Z,10.87
2022-09-28T03:53:30.115Z,9.47
2022-09-28T03:56:02.055Z,7.37
2022-09-28T03:58:28.711Z,11.13
2022-09-28T04:00:55.089Z,12.63
2022-09-28T04:03:21.525Z,13.80
2022-09-28T04:05:50.037Z,19.80
2022-09-28T04:08:16.446Z,13.33
2022-09-28T04:10:42.908Z,13.10
2022-09-28T04:13:09.657Z,15.37
2022-09-28T04:15:37.898Z,11.13
2022-09-28T04:18:09.199Z,9.17
2022-09-28T04:20:35.510Z,10.57
2022-09-28T04:23:02.033Z,10.67
2022-09-28T04:25:28.426Z,11.07
2022-09-28T04:28:13.315Z,10.60
2022-09-28T04:30:39.670Z,11.73
2022-09-28T04:33:06.128Z,10.63
2022-09-28T04:35:32.435Z,12.30
2022-09-28T04:37:58.963Z,12.43
2022-09-28T04:40:25.420Z,12.67
2022-09-28T04:42:56.140Z,13.37
2022-09-28T04:45:26.025Z,11.93
2022-09-28T04:47:52.621Z,13.83
2022-09-28T04:50:19.076Z,11.63
2022-09-28T04:52:45.419Z,14.73
2022-09-28T04:55:13.628Z,12.50
2022-09-28T04:57:40.459Z,14.87
2022-09-28T05:00:08.226Z,13.50
2022-09-28T05:02:34.664Z,13.50
2022-09-28T05:05:01.141Z,11.80
2022-09-28T05:07:27.563Z,12.17
2022-09-28T05:09:55.209Z,14.70
2022-09-28T05:12:21.934Z,12.63
2022-09-28T05:14:48.408Z,16.20
2022-09-28T05:17:14.895Z,13.90
2022-09-28T05:19:41.207Z,17.17
2022-09-28T05:22:11.480Z,13.00
2022-09-28T05:24:37.981Z,13.03
2022-09-28T05:27:05.213Z,13.23
2022-09-28T05:29:32.606Z,12.73
2022-09-28T05:32:01.536Z,11.57
2022-09-28T05:34:28.193Z,11.17
2022-09-28T05:36:54.579Z,12.60
2022-09-28T05:39:21.050Z,11.90
2022-09-28T05:41:47.671Z,12.00
2022-09-28T05:44:14.054Z,11.07
2022-09-28T05:46:40.605Z,10.40
2022-09-28T05:49:06.963Z,12.10
2022-09-28T05:51:33.356Z,10.80
2022-09-28T05:54:05.469Z,11.53
2022-09-28T05:56:32.170Z,12.47
2022-09-28T05:58:58.653Z,11.97
2022-09-28T06:01:25.314Z,11.90
2022-09-28T06:03:51.714Z,10.67
2022-09-28T06:06:18.024Z,8.97
2022-09-28T06:08:46.382Z,9.10
2022-09-28T06:11:12.773Z,8.77
2022-09-28T06:13:39.926Z,10.27
2022-09-28T06:16:08.154Z,13.07
2022-09-28T06:18:34.621Z,10.87
2022-09-28T06:21:01.231Z,13.23
2022-09-28T06:23:27.779Z,8.80
2022-09-28T06:25:54.163Z,10.37
2022-09-28T06:28:20.492Z,7.00
2022-09-28T06:30:48.185Z,9.37
2022-09-28T06:33:15.181Z,7.43
2022-09-28T06:35:42.366Z,10.40
2022-09-28T06:38:09.125Z,6.37
2022-09-28T06:40:36.222Z,6.87
2022-09-28T06:43:10.344Z,7.97
2022-09-28T06:45:38.120Z,7.43
2022-09-28T06:48:06.171Z,6.67
2022-09-28T06:50:39.436Z,6.30
2022-09-28T06:53:09.252Z,6.90
2022-09-28T06:55:38.892Z,8.03
2022-09-28T06:58:07.871Z,6.30
2022-09-28T07:00:36.661Z,6.30
2022-09-28T07:03:08.546Z,5.90
2022-09-28T07:05:37.003Z,7.20
2022-09-28T07:08:06.183Z,7.70
2022-09-28T07:10:33.405Z,7.83
2022-09-28T07:13:05.772Z,9.40
2022-09-28T07:15:33.315Z,7.70
2022-09-28T07:18:05.229Z,7.07
2022-09-28T07:20:39.345Z,7.17
2022-09-28T07:23:19.297Z,9.30
2022-09-28T07:25:47.880Z,5.87
2022-09-28T07:28:15.518Z,6.20
2022-09-28T07:30:44.207Z,7.50
2022-09-28T07:33:14.523Z,6.30
2022-09-28T07:35:44.298Z,6.90
2022-09-28T07:38:11.306Z,7.77
2022-09-28T07:40:56.655Z,5.80
2022-09-28T07:43:23.265Z,6.57
2022-09-28T07:45:54.921Z,6.23
2022-09-28T07:48:22.438Z,5.60
2022-09-28T07:50:54.018Z,5.80
2022-09-28T07:53:22.312Z,6.73
2022-09-28T07:55:55.827Z,6.60
2022-09-28T07:58:23.096Z,6.37
2022-09-28T08:00:50.612Z,7.13
2022-09-28T08:03:19.404Z,5.30
2022-09-28T08:05:46.693Z,4.27
2022-09-28T08:08:13.245Z,4.67
2022-09-28T08:10:46.589Z,7.77
2022-09-28T08:13:15.116Z,4.43
2022-09-28T08:15:42.237Z,4.60
2022-09-28T08:18:08.633Z,10.20
2022-09-28T08:20:54.026Z,5.33
2022-09-28T08:23:20.496Z,6.27
2022-09-28T08:25:52.442Z,6.00
2022-09-28T08:28:18.954Z,8.47
2022-09-28T08:30:46.385Z,5.77
2022-09-28T08:33:18.178Z,3.90
2022-09-28T08:35:46.728Z,3.40
2022-09-28T08:38:13.819Z,4.53
2022-09-28T08:40:54.938Z,4.37
2022-09-28T08:43:41.682Z,5.07
2022-09-28T08:46:11.223Z,3.23
2022-09-28T08:49:13.432Z,4.33
2022-09-28T08:52:01.500Z,4.40
2022-09-28T08:55:06.320Z,4.73
2022-09-28T08:57:49.533Z,4.60
2022-09-28T09:00:42.533Z,4.50
2022-09-28T09:03:20.688Z,5.43
2022-09-28T09:05:53.130Z,4.27
2022-09-28T09:08:36.746Z,3.50
2022-09-28T09:11:27.376Z,5.47
2022-09-28T09:14:23.702Z,4.37
2022-09-28T09:17:17.254Z,6.03
2022-09-28T09:20:19.574Z,5.57
2022-09-28T09:22:59.643Z,4.40
2022-09-28T09:25:38.392Z,6.70
2022-09-28T09:28:35.373Z,3.93
2022-09-28T09:31:32.594Z,5.57
2022-09-28T09:34:36.598Z,4.73
2022-09-28T09:37:12.159Z,6.63
2022-09-28T09:39:53.690Z,4.70
2022-09-28T09:42:40.391Z,3.83
2022-09-28T09:45:35.609Z,5.93
2022-09-28T09:48:26.165Z,8.03
2022-09-28T09:51:01.849Z,4.60
2022-09-28T09:53:43.633Z,4.10
2022-09-28T09:56:17.018Z,3.60
2022-09-28T09:58:52.686Z,5.73
2022-09-28T10:01:24.703Z,3.67
2022-09-28T10:03:51.916Z,4.50
2022-09-28T10:06:35.171Z,4.30
2022-09-28T10:09:05.769Z,3.97
2022-09-28T10:11:42.995Z,4.97
2022-09-28T10:14:15.724Z,3.10
2022-09-28T10:16:45.037Z,2.97
2022-09-28T10:19:13.200Z,2.43
2022-09-28T10:21:41.516Z,2.40
2022-09-28T10:24:17.264Z,2.27
2022-09-28T10:26:49.628Z,1.63
2022-09-28T10:29:20.651Z,6.27
2022-09-28T10:31:49.273Z,2.67
2022-09-28T10:34:18.896Z,2.73
2022-09-28T10:37:09.537Z,2.17
2022-09-28T10:39:37.555Z,3.20
2022-09-28T10:42:11.159Z,2.17
2022-09-28T10:44:54.212Z,3.93
2022-09-28T10:47:24.018Z,1.90
2022-09-28T10:49:52.175Z,6.70
2022-09-28T10:52:33.824Z,5.60
2022-09-28T10:55:00.934Z,1.60
2022-09-28T10:57:37.553Z,3.30
2022-09-28T11:00:06.951Z,1.93
2022-09-28T11:02:37.206Z,1.63
2022-09-28T11:05:06.440Z,1.67
2022-09-28T11:07:44.394Z,2.57
2022-09-28T11:10:21.552Z,3.37
2022-09-28T11:12:49.948Z,1.30
2022-09-28T11:15:30.640Z,1.80
2022-09-28T11:18:17.229Z,1.90
2022-09-28T11:20:45.532Z,4.40
2022-09-28T11:23:20.470Z,1.83
2022-09-28T11:26:07.854Z,2.00
2022-09-28T11:28:37.431Z,2.77
2022-09-28T11:31:07.121Z,2.43
2022-09-28T11:33:36.730Z,1.43
2022-09-28T11:36:16.549Z,2.00
2022-09-28T11:39:11.751Z,2.10
2022-09-28T11:42:02.721Z,1.53
2022-09-28T11:44:39.855Z,3.87
2022-09-28T11:47:47.040Z,1.30
2022-09-28T11:50:26.482Z,3.53
2022-09-28T11:52:56.938Z,1.63
2022-09-28T11:55:38.598Z,3.77
2022-09-28T11:58:34.166Z,4.77
2022-09-28T12:01:31.303Z,2.70
2022-09-28T12:04:05.756Z,2.03
2022-09-28T12:06:39.158Z,2.83
2022-09-28T12:09:16.634Z,2.53
2022-09-28T12:11:46.686Z,1.87
2022-09-28T12:14:27.305Z,4.17
2022-09-28T12:17:07.724Z,1.63
2022-09-28T12:20:13.805Z,2.63
2022-09-28T12:22:54.614Z,3.33
2022-09-28T12:25:23.031Z,1.67
2022-09-28T12:28:00.861Z,1.60
2022-09-28T12:30:32.931Z,1.27
2022-09-28T12:33:05.353Z,2.17
2022-09-28T12:35:40.395Z,1.40
2022-09-28T12:38:31.677Z,1.17
2022-09-28T12:41:08.575Z,2.20
2022-09-28T12:44:03.897Z,4.20
2022-09-28T12:46:58.318Z,2.43
2022-09-28T12:50:33.316Z,4.40
2022-09-28T12:52:32.933Z,1.80
2022-09-28T12:55:24.140Z,1.70
2022-09-28T12:57:58.861Z,3.40
2022-09-28T13:00:48.437Z,1.97
2022-09-28T13:03:31.777Z,3.67
2022-09-28T13:06:26.058Z,2.10
2022-09-28T13:08:58.362Z,2.13
2022-09-28T13:11:51.321Z,3.47
2022-09-28T13:14:32.867Z,2.40
2022-09-28T13:17:33.046Z,4.17
2022-09-28T13:20:15.885Z,2.77
2022-09-28T13:23:02.675Z,1.63
2022-09-28T13:25:34.263Z,1.80
2022-09-28T13:28:05.676Z,3.53
2022-09-28T13:30:36.561Z,2.73
2022-09-28T13:33:06.714Z,2.73
2022-09-28T13:35:33.532Z,2.83
2022-09-28T13:38:15.175Z,1.70
2022-09-28T13:41:10.619Z,3.43
2022-09-28T13:43:54.577Z,7.60
2022-09-28T13:46:48.889Z,3.97
2022-09-28T13:49:24.066Z,1.87
2022-09-28T13:52:03.706Z,1.90
2022-09-28T13:55:03.629Z,2.87
2022-09-28T13:57:42.332Z,2.00
2022-09-28T14:00:30.943Z,3.37
2022-09-28T14:03:06.373Z,2.10
2022-09-28T14:06:00.639Z,2.17
2022-09-28T14:08:34.125Z,1.40
2022-09-28T14:11:34.936Z,1.07
2022-09-28T14:14:14.210Z,1.50
2022-09-28T14:16:42.309Z,2.33
2022-09-28T14:19:12.371Z,1.23
2022-09-28T14:21:49.448Z,1.50
2022-09-28T14:24:30.149Z,1.50
2022-09-28T14:27:24.471Z,1.77
2022-09-28T14:30:06.320Z,3.63
2022-09-28T14:32:37.228Z,1.60
2022-09-28T14:35:18.939Z,1.87
2022-09-28T14:38:08.515Z,6.50
2022-09-28T14:41:12.462Z,9.20
2022-09-28T14:43:44.865Z,2.83
2022-09-28T14:46:17.489Z,4.10
2022-09-28T14:48:51.082Z,1.90
2022-09-28T14:51:26.611Z,3.73
2022-09-28T14:54:20.484Z,1.67
2022-09-28T14:57:08.696Z,3.37
2022-09-28T14:59:42.919Z,2.93
2022-09-28T15:02:15.350Z,3.83
2022-09-28T15:04:49.748Z,2.40
2022-09-28T15:07:21.592Z,5.20
2022-09-28T15:09:50.399Z,5.17
2022-09-28T15:12:21.082Z,3.33
2022-09-28T15:15:07.774Z,3.00
2022-09-28T15:17:40.099Z,2.50
2022-09-28T15:20:24.563Z,2.67
2022-09-28T15:22:59.971Z,4.60
2022-09-28T15:25:28.915Z,4.20
2022-09-28T15:27:57.963Z,4.83
2022-09-28T15:30:31.800Z,2.23
2022-09-28T15:33:18.781Z,1.80
2022-09-28T15:36:07.791Z,3.17
2022-09-28T15:38:35.400Z,6.70
2022-09-28T15:41:06.681Z,2.00
2022-09-28T15:43:34.690Z,2.43
2022-09-28T15:46:18.326Z,3.13
2022-09-28T15:48:59.697Z,2.23
2022-09-28T15:51:28.292Z,2.50
2022-09-28T15:54:26.302Z,4.40
2022-09-28T15:56:59.650Z,3.33
2022-09-28T15:59:32.009Z,2.83
2022-09-28T16:02:10.860Z,4.37
2022-09-28T16:04:47.943Z,3.63
2022-09-28T16:07:23.092Z,4.93
2022-09-28T16:10:12.729Z,3.00
2022-09-28T16:12:48.028Z,3.00
2022-09-28T16:15:25.562Z,5.23
2022-09-28T16:17:55.442Z,3.70
2022-09-28T16:20:29.997Z,3.67
2022-09-28T16:23:03.482Z,4.33
2022-09-28T16:25:29.942Z,2.97
2022-09-28T16:27:56.330Z,3.37
2022-09-28T16:30:25.997Z,5.23
2022-09-28T16:33:05.846Z,3.67
2022-09-28T16:35:48.752Z,4.47
2022-09-28T16:38:16.871Z,6.03
2022-09-28T16:40:49.461Z,3.83
2022-09-28T16:43:26.628Z,3.43
2022-09-28T16:45:59.111Z,5.43
2022-09-28T16:48:27.855Z,3.03
2022-09-28T16:50:54.515Z,1.60
2022-09-28T16:53:39.585Z,2.33
2022-09-28T16:56:07.368Z,2.37
2022-09-28T16:58:34.169Z,1.97
2022-09-28T17:01:01.029Z,2.70
2022-09-28T17:03:28.560Z,2.30
2022-09-28T17:05:55.483Z,2.93
2022-09-28T17:08:24.204Z,1.33
2022-09-28T17:11:14.741Z,2.67
2022-09-28T17:13:45.046Z,2.03
2022-09-28T17:16:17.895Z,1.80
2022-09-28T17:18:45.235Z,2.17
2022-09-28T17:21:15.642Z,1.87
2022-09-28T17:23:47.202Z,4.07
2022-09-28T17:26:19.793Z,1.80
2022-09-28T17:28:46.464Z,1.77
2022-09-28T17:31:16.103Z,2.77
2022-09-28T17:33:43.235Z,3.50
2022-09-28T17:36:15.081Z,3.97
2022-09-28T17:38:42.838Z,4.20
2022-09-28T17:41:20.209Z,3.47
2022-09-28T17:43:47.073Z,4.83
2022-09-28T17:46:24.431Z,2.10
2022-09-28T17:48:51.001Z,2.70
2022-09-28T17:51:17.438Z,2.57
2022-09-28T17:53:43.941Z,2.60
2022-09-28T17:56:10.438Z,4.43
2022-09-28T17:58:38.404Z,4.07
2022-09-28T18:01:04.902Z,6.87
2022-09-28T18:03:31.266Z,3.87
2022-09-28T18:06:10.822Z,4.27
2022-09-28T18:08:37.220Z,7.73
2022-09-28T18:11:03.565Z,6.00
2022-09-28T18:13:30.121Z,5.23
2022-09-28T18:15:56.812Z,5.63
2022-09-28T18:18:24.442Z,4.20
2022-09-28T18:20:51.668Z,4.47
2022-09-28T18:23:18.426Z,4.70
2022-09-28T18:25:45.940Z,3.37
2022-09-28T18:28:13.258Z,4.73
2022-09-28T18:30:45.047Z,5.00
2022-09-28T18:33:13.640Z,3.70
2022-09-28T18:35:40.436Z,4.03
2022-09-28T18:38:07.351Z,3.73
2022-09-28T18:40:35.610Z,3.53
2022-09-28T18:43:03.242Z,4.70
2022-09-28T18:45:29.811Z,5.10
2022-09-28T18:47:58.060Z,3.53
2022-09-28T18:50:24.371Z,3.90
2022-09-28T18:52:50.744Z,7.17
2022-09-28T18:55:17.262Z,5.53
2022-09-28T18:57:44.634Z,4.00
2022-09-28T19:00:12.171Z,3.77
2022-09-28T19:02:39.038Z,3.73
2022-09-28T19:05:06.064Z,4.37
2022-09-28T19:07:33.541Z,5.07
2022-09-28T19:10:00.439Z,5.30
2022-09-28T19:12:27.025Z,5.30
2022-09-28T19:14:53.522Z,5.63
2022-09-28T19:17:19.859Z,4.73
2022-09-28T19:19:46.193Z,5.20
2022-09-28T19:22:12.686Z,5.17
2022-09-28T19:24:39.065Z,4.70
2022-09-28T19:27:05.463Z,6.03
2022-09-28T19:29:31.852Z,5.03
2022-09-28T19:31:58.189Z,6.50
2022-09-28T19:34:26.985Z,6.20
2022-09-28T19:36:53.292Z,6.87
2022-09-28T19:39:19.768Z,6.93
2022-09-28T19:41:53.010Z,6.00
2022-09-28T19:44:25.294Z,6.07
2022-09-28T19:47:00.442Z,4.93
2022-09-28T19:49:27.771Z,5.43
2022-09-28T19:52:13.937Z,5.47
2022-09-28T19:54:57.375Z,8.80
2022-09-28T19:57:27.513Z,6.70
2022-09-28T19:59:57.827Z,6.03
2022-09-28T20:02:27.663Z,5.97
2022-09-28T20:04:54.004Z,8.00
2022-09-28T20:07:20.664Z,6.33
2022-09-28T20:09:47.160Z,5.23
2022-09-28T20:12:13.524Z,5.67
2022-09-28T20:14:40.548Z,5.03
2022-09-28T20:17:07.374Z,5.43
2022-09-28T20:19:34.810Z,4.60
2022-09-28T20:22:02.656Z,4.90
2022-09-28T20:24:29.362Z,4.93
2022-09-28T20:26:55.906Z,4.37
2022-09-28T20:29:22.964Z,7.23
2022-09-28T20:31:49.400Z,4.27
2022-09-28T20:34:15.877Z,4.17
2022-09-28T20:36:44.463Z,4.80
2022-09-28T20:39:11.473Z,4.83
2022-09-28T20:41:37.879Z,4.77
2022-09-28T20:44:06.464Z,5.03
2022-09-28T20:46:34.960Z,5.67
2022-09-28T20:49:01.708Z,5.13
2022-09-28T20:51:28.091Z,5.00
2022-09-28T20:53:56.908Z,5.20
2022-09-28T20:56:25.958Z,5.27
2022-09-28T20:58:53.141Z,6.63
2022-09-28T21:01:22.594Z,6.90
2022-09-28T21:03:51.777Z,6.30
2022-09-28T21:06:20.214Z,6.47
2022-09-28T21:08:46.969Z,5.57
2022-09-28T21:11:14.725Z,6.57
2022-09-28T21:13:42.814Z,6.80
2022-09-28T21:16:14.212Z,5.90
2022-09-28T21:18:41.296Z,6.53
2022-09-28T21:21:15.761Z,6.00
2022-09-28T21:23:44.923Z,6.40
2022-09-28T21:26:12.583Z,7.90
2022-09-28T21:28:40.197Z,6.97
2022-09-28T21:31:09.932Z,5.80
2022-09-28T21:33:36.296Z,5.93
2022-09-28T21:36:07.261Z,6.63
2022-09-28T21:38:34.808Z,6.53
2022-09-28T21:41:01.466Z,5.80
2022-09-28T21:43:29.515Z,5.90
2022-09-28T21:45:56.690Z,5.60
2022-09-28T21:48:24.990Z,5.53
2022-09-28T21:50:56.689Z,5.63
2022-09-28T21:53:28.887Z,6.13
2022-09-28T21:55:56.401Z,6.03
2022-09-28T21:58:24.600Z,5.37
2022-09-28T22:00:58.165Z,5.70
2022-09-28T22:03:25.677Z,5.80
2022-09-28T22:05:52.444Z,5.70
2022-09-28T22:08:19.264Z,7.37
2022-09-28T22:10:45.748Z,5.20
2022-09-28T22:13:12.075Z,5.43
2022-09-28T22:15:38.891Z,6.37
2022-09-28T22:18:05.240Z,5.93
2022-09-28T22:20:31.553Z,5.90
2022-09-28T22:22:57.918Z,7.17
2022-09-28T22:25:24.332Z,5.87
2022-09-28T22:27:50.709Z,6.33
2022-09-28T22:30:17.081Z,8.93
2022-09-28T22:32:43.409Z,6.30
2022-09-28T22:35:09.748Z,6.93
2022-09-28T22:37:36.134Z,5.80
2022-09-28T22:40:02.491Z,5.33
2022-09-28T22:42:29.327Z,6.37
2022-09-28T22:44:55.792Z,5.60
2022-09-28T22:47:22.102Z,9.43
2022-09-28T22:49:48.474Z,5.43
2022-09-28T22:52:14.918Z,5.93
2022-09-28T22:54:41.246Z,6.23
2022-09-28T22:57:07.686Z,5.87
2022-09-28T22:59:34.112Z,5.43
2022-09-28T23:02:00.475Z,5.47
2022-09-28T23:04:26.806Z,5.27
2022-09-28T23:06:53.140Z,6.17
2022-09-28T23:09:19.580Z,9.03
2022-09-28T23:11:46.061Z,6.20
2022-09-28T23:14:12.723Z,5.50
2022-09-28T23:16:39.023Z,5.27
2022-09-28T23:19:05.490Z,7.53
2022-09-28T23:21:31.877Z,7.13
2022-09-28T23:24:01.401Z,5.27
2022-09-28T23:26:30.562Z,5.93
2022-09-28T23:28:57.853Z,4.60
2022-09-28T23:31:32.472Z,5.33
2022-09-28T23:34:03.773Z,5.20
2022-09-28T23:36:31.204Z,6.23
2022-09-28T23:38:57.991Z,4.77
2022-09-28T23:41:24.437Z,5.30
2022-09-28T23:43:50.958Z,4.90
2022-09-28T23:46:20.701Z,5.73
2022-09-28T23:48:47.486Z,5.63
2022-09-28T23:51:13.874Z,7.13
2022-09-28T23:53:40.252Z,5.53
2022-09-28T23:56:06.603Z,5.93
2022-09-28T23:58:33.105Z,6.10
